Time;durP1;ratioP1;P1;durP2;ratioP2;P2;SDS_P1;SDS_P2;PMS_P1;PMS_P2;Temp;Humidity;BMP_temperature;BMP_pressure;BME280_temperature;BME280_humidity;BME280_pressure;Samples;Min_cycle;Max_cycle;Signal;HPM_P1;HPM_P2
2021/03/05 00:01:45;;;;;;;17.50;8.50;;;4.60;99.80;;;;;;6172545;23;20223;-87
2021/03/05 00:04:12;;;;;;;20.55;8.85;;;4.60;99.80;;;;;;6191911;23;20213;-86
2021/03/05 00:06:39;;;;;;;22.42;9.32;;;4.50;99.80;;;;;;6163239;23;20215;-87
2021/03/05 00:09:06;;;;;;;17.13;9.30;;;4.50;99.80;;;;;;6159778;23;20646;-87
2021/03/05 00:11:33;;;;;;;17.88;7.75;;;4.50;99.80;;;;;;6170134;23;20247;-87
2021/03/05 00:14:00;;;;;;;20.48;9.32;;;4.50;99.80;;;;;;6162784;23;20201;-87
2021/03/05 00:16:28;;;;;;;17.20;10.02;;;4.50;99.80;;;;;;6191286;23;20272;-87
2021/03/05 00:18:55;;;;;;;19.95;9.75;;;4.60;99.80;;;;;;6211263;23;20259;-86
2021/03/05 00:21:22;;;;;;;13.95;7.72;;;4.60;99.80;;;;;;6210306;23;20210;-87
2021/03/05 00:23:50;;;;;;;22.77;8.88;;;4.60;99.80;;;;;;6200475;23;20204;-87
2021/03/05 00:26:20;;;;;;;19.85;9.10;;;4.70;99.80;;;;;;6155367;23;20212;-87
2021/03/05 00:28:48;;;;;;;17.25;9.13;;;4.60;99.80;;;;;;6161568;23;20292;-88
2021/03/05 00:31:15;;;;;;;17.95;8.23;;;4.60;99.80;;;;;;6184685;23;20776;-88
2021/03/05 00:33:43;;;;;;;16.83;8.52;;;4.70;99.80;;;;;;6199183;23;20596;-87
2021/03/05 00:36:10;;;;;;;13.45;7.55;;;4.60;99.80;;;;;;6168838;23;20549;-89
2021/03/05 00:38:37;;;;;;;20.45;8.55;;;4.60;99.80;;;;;;6158747;23;20292;-87
2021/03/05 00:41:04;;;;;;;19.15;8.73;;;4.70;99.80;;;;;;6160875;23;20284;-88
2021/03/05 00:43:31;;;;;;;19.58;9.07;;;4.80;99.80;;;;;;6175515;23;20716;-87
2021/03/05 00:45:59;;;;;;;21.77;9.23;;;4.70;99.80;;;;;;6189615;23;20209;-87
2021/03/05 00:48:27;;;;;;;17.63;9.10;;;4.70;99.80;;;;;;6210194;23;20803;-87
2021/03/05 00:50:56;;;;;;;16.35;9.23;;;4.70;99.80;;;;;;6209571;23;20653;-87
2021/03/05 00:53:23;;;;;;;14.13;8.40;;;4.80;99.80;;;;;;6210662;23;20263;-88
2021/03/05 00:55:50;;;;;;;19.30;9.27;;;4.80;99.80;;;;;;6189026;23;20880;-87
2021/03/05 00:58:18;;;;;;;14.67;8.27;;;4.80;99.80;;;;;;6159371;23;20209;-87
2021/03/05 01:00:45;;;;;;;17.10;8.50;;;4.80;99.80;;;;;;6194706;23;20495;-87
2021/03/05 01:03:12;;;;;;;23.10;8.63;;;4.80;99.80;;;;;;6209440;23;20506;-87
2021/03/05 01:05:39;;;;;;;18.17;8.57;;;4.80;99.80;;;;;;6192775;23;20495;-87
2021/03/05 01:08:08;;;;;;;19.23;9.90;;;4.80;99.80;;;;;;6185446;23;20743;-87
2021/03/05 01:10:35;;;;;;;22.25;10.20;;;4.80;99.80;;;;;;6162518;23;20881;-87
2021/03/05 01:13:04;;;;;;;21.50;9.60;;;4.80;99.80;;;;;;6148674;23;20227;-87
2021/03/05 01:15:31;;;;;;;15.88;9.32;;;4.80;99.80;;;;;;6151448;23;20432;-87
2021/03/05 01:17:58;;;;;;;17.60;9.27;;;4.80;99.80;;;;;;6156863;23;20261;-87
2021/03/05 01:20:27;;;;;;;24.92;9.55;;;4.80;99.80;;;;;;6164318;23;20442;-87
2021/03/05 01:22:54;;;;;;;18.45;8.57;;;4.80;99.80;;;;;;6170314;23;20203;-87
2021/03/05 01:25:24;;;;;;;15.67;7.83;;;4.60;99.80;;;;;;6164757;23;20685;-88
2021/03/05 01:27:52;;;;;;;15.48;8.40;;;4.60;99.80;;;;;;6160385;23;20451;-86
2021/03/05 01:30:20;;;;;;;17.40;8.60;;;4.60;99.80;;;;;;6193991;23;20228;-87
2021/03/05 01:32:48;;;;;;;19.92;9.68;;;4.60;99.80;;;;;;6204726;23;20201;-87
2021/03/05 01:35:17;;;;;;;15.30;7.75;;;4.60;99.80;;;;;;6200047;23;20208;-87
2021/03/05 01:37:45;;;;;;;17.10;9.00;;;4.50;99.80;;;;;;6173405;23;20292;-87
2021/03/05 01:40:14;;;;;;;18.88;9.30;;;4.50;99.80;;;;;;6155877;23;20442;-87
2021/03/05 01:42:43;;;;;;;13.82;7.57;;;4.60;99.80;;;;;;6144995;23;20806;-88
2021/03/05 01:45:13;;;;;;;15.90;7.47;;;4.60;99.80;;;;;;6165554;23;20867;-88
2021/03/05 01:47:40;;;;;;;16.05;7.72;;;4.60;99.80;;;;;;6163685;23;20240;-87
2021/03/05 01:50:12;;;;;;;23.42;9.20;;;4.60;99.80;;;;;;6169468;23;20288;-87
2021/03/05 01:52:46;;;;;;;16.57;8.63;;;4.60;99.80;;;;;;6117989;23;20232;-86
2021/03/05 01:55:14;;;;;;;16.23;8.10;;;4.60;99.80;;;;;;6147159;23;20436;-87
2021/03/05 01:57:42;;;;;;;18.95;9.35;;;4.60;99.80;;;;;;6165954;23;20276;-88
2021/03/05 02:03:21;;;;;;;16.60;8.00;;;4.60;99.80;;;;;;6200444;23;20201;-87
2021/03/05 02:05:48;;;;;;;18.42;8.70;;;4.60;99.80;;;;;;6203096;23;20209;-88
2021/03/05 02:08:42;;;;;;;16.35;9.00;;;4.60;99.80;;;;;;6170111;23;20217;-87
2021/03/05 02:11:11;;;;;;;15.03;9.10;;;4.60;99.80;;;;;;6198639;23;20246;-87
2021/03/05 02:13:39;;;;;;;14.98;8.27;;;4.60;99.80;;;;;;6137801;23;20444;-88
2021/03/05 02:16:13;;;;;;;12.63;7.15;;;4.60;99.80;;;;;;6171162;23;20209;-88
2021/03/05 02:18:49;;;;;;;14.50;7.97;;;4.60;99.80;;;;;;6184755;23;20204;-87
2021/03/05 02:21:35;;;;;;;12.80;7.75;;;4.60;99.80;;;;;;6152819;23;20450;-88
2021/03/05 02:24:16;;;;;;;15.98;7.97;;;4.60;99.80;;;;;;6144922;23;20656;-87
2021/03/05 02:27:13;;;;;;;16.20;8.48;;;4.60;99.80;;;;;;6153729;23;20277;-87
2021/03/05 02:30:14;;;;;;;14.73;8.50;;;4.60;99.80;;;;;;6186551;23;20259;-87
2021/03/05 02:32:49;;;;;;;15.65;8.27;;;4.60;99.80;;;;;;6205726;23;20435;-87
2021/03/05 02:35:17;;;;;;;13.65;8.20;;;4.60;99.80;;;;;;6176415;23;21025;-87
2021/03/05 02:37:48;;;;;;;14.85;9.10;;;4.60;99.80;;;;;;6175999;23;20205;-87
2021/03/05 02:40:22;;;;;;;17.77;8.57;;;4.60;99.80;;;;;;6153891;23;20212;-88
2021/03/05 02:42:53;;;;;;;14.68;7.85;;;4.60;99.80;;;;;;6138783;23;20435;-86
2021/03/05 02:45:25;;;;;;;15.80;9.23;;;4.60;99.80;;;;;;6167087;23;20209;-87
2021/03/05 02:47:57;;;;;;;17.33;8.90;;;4.60;99.80;;;;;;6176415;23;20208;-87
2021/03/05 02:50:27;;;;;;;19.30;9.20;;;4.60;99.80;;;;;;6166372;23;21365;-88
2021/03/05 02:52:57;;;;;;;19.20;9.20;;;4.60;99.80;;;;;;6146993;23;20490;-87
2021/03/05 02:55:26;;;;;;;17.40;8.75;;;4.70;99.80;;;;;;6166044;23;20661;-87
2021/03/05 02:57:57;;;;;;;17.42;8.43;;;4.70;99.80;;;;;;6167132;23;20201;-86
2021/03/05 03:00:25;;;;;;;15.93;7.80;;;4.70;99.80;;;;;;6195719;23;20204;-87
2021/03/05 03:02:54;;;;;;;17.80;9.00;;;4.80;99.80;;;;;;6211507;23;20204;-87
2021/03/05 03:05:24;;;;;;;16.77;8.20;;;4.70;99.80;;;;;;6211754;23;20416;-87
2021/03/05 03:07:52;;;;;;;17.15;9.05;;;4.70;99.80;;;;;;6212671;23;20269;-87
2021/03/05 03:10:22;;;;;;;16.20;7.32;;;4.70;99.80;;;;;;6211468;23;20173;-88
2021/03/05 03:12:52;;;;;;;17.52;7.80;;;4.70;99.80;;;;;;6195403;23;20282;-87
2021/03/05 03:15:20;;;;;;;15.65;8.55;;;4.70;99.80;;;;;;6215261;23;20707;-87
2021/03/05 03:17:47;;;;;;;18.23;8.30;;;4.80;99.80;;;;;;6188403;23;20932;-86
2021/03/05 03:20:20;;;;;;;14.97;7.37;;;4.70;99.80;;;;;;6200760;22;20211;-87
2021/03/05 03:22:47;;;;;;;17.48;8.38;;;4.70;99.80;;;;;;6188325;23;20434;-87
2021/03/05 03:25:15;;;;;;;12.35;7.13;;;4.70;99.80;;;;;;6177651;23;20625;-87
2021/03/05 03:27:42;;;;;;;13.10;6.80;;;4.60;99.80;;;;;;6170847;22;20192;-87
2021/03/05 03:30:11;;;;;;;11.13;5.68;;;4.60;99.80;;;;;;6191297;22;20204;-87
2021/03/05 03:32:39;;;;;;;12.45;6.18;;;4.60;99.80;;;;;;6200970;23;20204;-86
2021/03/05 03:35:09;;;;;;;21.10;7.20;;;4.50;99.80;;;;;;6202224;23;20208;-87
2021/03/05 03:37:37;;;;;;;15.23;6.45;;;4.50;99.80;;;;;;6196643;23;20201;-86
2021/03/05 03:40:06;;;;;;;14.55;5.72;;;4.50;99.80;;;;;;6136644;23;20264;-86
2021/03/05 03:42:34;;;;;;;12.85;6.65;;;4.50;99.80;;;;;;6133940;23;20302;-86
2021/03/05 03:45:01;;;;;;;16.92;6.78;;;4.50;99.80;;;;;;6129701;23;20796;-86
2021/03/05 03:47:29;;;;;;;8.98;5.38;;;4.50;99.80;;;;;;6177496;23;20490;-87
2021/03/05 03:49:59;;;;;;;16.23;6.22;;;4.50;99.80;;;;;;6148086;23;20286;-87
2021/03/05 03:52:32;;;;;;;11.10;5.85;;;4.40;99.80;;;;;;6138050;23;20612;-86
2021/03/05 03:55:00;;;;;;;11.30;6.03;;;4.40;99.80;;;;;;6138314;23;20286;-86
2021/03/05 03:57:29;;;;;;;19.25;7.07;;;4.40;99.80;;;;;;6159578;23;20198;-88
2021/03/05 03:59:57;;;;;;;11.52;6.07;;;4.50;99.80;;;;;;6144001;23;20495;-87
2021/03/05 04:02:27;;;;;;;19.00;8.20;;;4.50;99.80;;;;;;6182701;23;20220;-87
2021/03/05 04:04:57;;;;;;;13.63;6.43;;;4.40;99.80;;;;;;6178656;23;20236;-87
2021/03/05 04:07:26;;;;;;;13.68;6.20;;;4.40;99.80;;;;;;6202657;23;20236;-87
2021/03/05 04:09:55;;;;;;;16.87;6.43;;;4.40;99.80;;;;;;6186291;23;20247;-87
2021/03/05 04:12:26;;;;;;;12.15;6.10;;;4.40;99.80;;;;;;6171924;23;20534;-87
2021/03/05 04:14:55;;;;;;;14.55;6.60;;;4.40;99.80;;;;;;6187873;23;20501;-87
2021/03/05 04:17:22;;;;;;;18.77;7.40;;;4.40;99.80;;;;;;6202566;23;20201;-87
2021/03/05 04:19:53;;;;;;;12.43;6.15;;;4.40;99.80;;;;;;6185753;23;20211;-87
2021/03/05 04:22:21;;;;;;;14.55;6.57;;;4.40;99.80;;;;;;6172305;23;20223;-86
2021/03/05 04:24:48;;;;;;;13.88;6.72;;;4.30;99.80;;;;;;6202940;23;20731;-87
2021/03/05 04:27:15;;;;;;;12.35;5.60;;;4.20;99.80;;;;;;6155261;23;20229;-88
2021/03/05 04:29:43;;;;;;;17.58;6.95;;;4.20;99.80;;;;;;6187626;23;20213;-87
2021/03/05 04:32:10;;;;;;;13.52;6.38;;;4.10;99.80;;;;;;6208083;23;20209;-86
2021/03/05 04:34:37;;;;;;;17.70;7.03;;;4.10;99.80;;;;;;6204772;23;20215;-87
2021/03/05 04:37:04;;;;;;;16.75;6.13;;;4.10;99.80;;;;;;6205789;23;20666;-87
2021/03/05 04:39:31;;;;;;;15.18;6.38;;;4.10;99.80;;;;;;6216912;23;20200;-87
2021/03/05 04:41:58;;;;;;;19.23;7.20;;;4.10;99.80;;;;;;6188337;23;20204;-86
2021/03/05 04:44:25;;;;;;;13.63;6.95;;;4.10;99.80;;;;;;6175407;22;20217;-86
2021/03/05 04:46:53;;;;;;;16.88;6.75;;;4.20;99.80;;;;;;6217877;23;20208;-87
2021/03/05 04:49:20;;;;;;;17.60;8.05;;;4.20;99.80;;;;;;6201695;23;20197;-87
2021/03/05 04:51:47;;;;;;;17.33;8.23;;;4.10;99.80;;;;;;6171010;23;20203;-87
2021/03/05 04:54:15;;;;;;;13.02;7.43;;;;;;;;;;6193339;22;20204;-87
2021/03/05 04:56:42;;;;;;;20.67;8.40;;;4.10;99.80;;;;;;6195327;23;20205;-87
2021/03/05 04:59:09;;;;;;;16.63;7.47;;;4.10;99.80;;;;;;6173588;23;20203;-88
2021/03/05 05:01:36;;;;;;;16.85;7.57;;;4.20;99.80;;;;;;6187829;22;20204;-87
2021/03/05 05:04:04;;;;;;;16.65;8.57;;;4.10;99.80;;;;;;6173833;22;20201;-87
2021/03/05 05:06:31;;;;;;;16.88;8.45;;;4.20;99.80;;;;;;6167889;22;20610;-87
2021/03/05 05:09:16;;;;;;;19.48;8.90;;;4.20;99.80;;;;;;6159993;23;20211;-87
2021/03/05 05:11:43;;;;;;;17.80;9.25;;;4.10;99.80;;;;;;6170895;23;20561;-87
2021/03/05 05:14:09;;;;;;;16.00;9.27;;;4.10;99.80;;;;;;6182731;23;20208;-88
2021/03/05 05:16:36;;;;;;;18.00;8.05;;;4.20;99.80;;;;;;6209210;23;20212;-88
2021/03/05 05:19:04;;;;;;;18.45;7.93;;;4.20;99.80;;;;;;6207085;23;20212;-88
2021/03/05 05:21:32;;;;;;;12.48;7.00;;;4.20;99.80;;;;;;6203625;23;20282;-88
2021/03/05 05:23:58;;;;;;;15.52;8.00;;;4.30;99.80;;;;;;6180422;23;20733;-88
2021/03/05 05:26:26;;;;;;;17.95;7.38;;;4.30;99.80;;;;;;6186381;23;20288;-88
2021/03/05 05:28:53;;;;;;;17.25;7.95;;;4.20;99.80;;;;;;6182891;22;20199;-87
2021/03/05 05:31:20;;;;;;;20.80;7.38;;;4.20;99.80;;;;;;6189061;23;20211;-87
2021/03/05 05:33:47;;;;;;;19.70;7.35;;;4.20;99.80;;;;;;6168733;23;20283;-87
2021/03/05 05:36:15;;;;;;;15.75;7.55;;;4.20;99.80;;;;;;6181323;23;20696;-89
2021/03/05 05:38:42;;;;;;;20.20;7.30;;;4.20;99.80;;;;;;6166227;23;20231;-89
2021/03/05 05:41:09;;;;;;;19.25;7.55;;;4.20;99.80;;;;;;6196235;23;20747;-89
2021/03/05 05:43:36;;;;;;;13.23;6.88;;;4.20;99.80;;;;;;6184399;22;20597;-90
2021/03/05 05:46:05;;;;;;;14.30;6.38;;;4.20;99.80;;;;;;6201259;23;20280;-89
2021/03/05 05:48:36;;;;;;;19.70;8.00;;;4.20;99.80;;;;;;6205970;23;20204;-89
2021/03/05 05:51:07;;;;;;;17.48;7.35;;;4.20;99.80;;;;;;6205073;23;20279;-89
2021/03/05 05:53:37;;;;;;;21.30;7.32;;;4.20;99.80;;;;;;6195158;23;20206;-89
2021/03/05 05:56:05;;;;;;;16.45;7.53;;;4.20;99.80;;;;;;6186071;23;20295;-89
2021/03/05 05:58:33;;;;;;;19.00;8.15;;;4.20;99.80;;;;;;6172360;23;20287;-89
2021/03/05 06:01:00;;;;;;;20.30;7.57;;;4.20;99.80;;;;;;6205661;23;20203;-89
2021/03/05 06:03:28;;;;;;;14.70;7.53;;;4.20;99.80;;;;;;6207408;23;20196;-89
2021/03/05 06:05:57;;;;;;;15.57;7.50;;;4.10;99.80;;;;;;6193739;23;20196;-89
2021/03/05 06:08:24;;;;;;;17.88;7.78;;;4.10;99.80;;;;;;6168297;23;20203;-88
2021/03/05 06:10:53;;;;;;;17.50;7.38;;;4.10;99.80;;;;;;6191444;23;20256;-90
2021/03/05 06:13:20;;;;;;;17.90;7.70;;;4.10;99.80;;;;;;6165418;23;20212;-89
2021/03/05 06:16:12;;;;;;;20.75;7.72;;;4.10;99.80;;;;;;6192286;23;20205;-89
2021/03/05 06:18:39;;;;;;;16.50;6.75;;;4.10;99.80;;;;;;6206149;23;20875;-88
2021/03/05 06:21:06;;;;;;;16.27;8.15;;;4.10;99.80;;;;;;6206094;23;20757;-90
2021/03/05 06:23:35;;;;;;;16.55;8.10;;;4.10;99.80;;;;;;6204485;23;20197;-89
2021/03/05 06:26:04;;;;;;;17.43;8.17;;;4.10;99.80;;;;;;6191058;22;20229;-89
2021/03/05 06:28:31;;;;;;;17.60;7.60;;;4.10;99.80;;;;;;6178079;23;20467;-89
2021/03/05 06:31:12;;;;;;;15.43;7.13;;;4.10;99.80;;;;;;6202331;23;20206;-89
2021/03/05 06:33:39;;;;;;;17.58;7.47;;;4.10;99.80;;;;;;6207420;23;20200;-89
2021/03/05 06:36:17;;;;;;;13.95;7.53;;;4.10;99.80;;;;;;6183930;23;20205;-89
2021/03/05 06:38:45;;;;;;;15.85;8.18;;;4.10;99.80;;;;;;6192203;23;20549;-89
2021/03/05 06:41:24;;;;;;;19.65;8.68;;;4.20;99.80;;;;;;6181485;23;20896;-89
2021/03/05 06:43:52;;;;;;;23.40;7.50;;;4.10;99.80;;;;;;6181701;23;20223;-90
2021/03/05 06:46:27;;;;;;;17.65;8.00;;;4.10;99.80;;;;;;6188572;22;20280;-89
2021/03/05 06:48:55;;;;;;;15.10;8.13;;;4.20;99.80;;;;;;6176283;23;20231;-89
2021/03/05 06:51:23;;;;;;;14.05;7.45;;;4.20;99.80;;;;;;6178267;23;20468;-89
2021/03/05 06:54:05;;;;;;;21.55;8.77;;;4.30;99.80;;;;;;6192487;22;20201;-88
2021/03/05 06:56:34;;;;;;;15.43;7.68;;;4.30;99.80;;;;;;6180723;23;20541;-89
2021/03/05 06:59:03;;;;;;;12.75;7.55;;;4.30;99.80;;;;;;6162828;23;20224;-90
2021/03/05 07:01:31;;;;;;;16.55;7.43;;;4.30;99.80;;;;;;6205812;23;20200;-89
2021/03/05 07:04:09;;;;;;;16.48;8.18;;;4.30;99.80;;;;;;6207335;23;20610;-89
2021/03/05 07:06:36;;;;;;;17.17;7.97;;;4.10;99.80;;;;;;6198961;23;20230;-89
2021/03/05 07:09:08;;;;;;;15.65;7.95;;;3.90;99.80;;;;;;6181498;23;20208;-90
2021/03/05 07:11:39;;;;;;;14.57;7.57;;;3.60;99.80;;;;;;6185123;23;20583;-89
2021/03/05 07:14:08;;;;;;;13.50;6.75;;;3.60;99.80;;;;;;6170725;23;20194;-90
2021/03/05 07:16:44;;;;;;;14.35;6.60;;;3.40;99.80;;;;;;6187955;22;20216;-90
2021/03/05 07:19:15;;;;;;;16.80;7.55;;;3.40;99.80;;;;;;6170058;23;20186;-89
2021/03/05 07:21:45;;;;;;;19.70;8.73;;;3.40;99.80;;;;;;6158744;23;20220;-89
2021/03/05 07:24:14;;;;;;;15.00;7.78;;;3.30;99.80;;;;;;6141476;23;20219;-89
2021/03/05 07:26:44;;;;;;;13.10;5.90;;;3.20;99.80;;;;;;6147199;23;20207;-89
2021/03/05 07:29:23;;;;;;;15.57;7.43;;;3.30;99.80;;;;;;6145028;23;20210;-90
2021/03/05 07:32:03;;;;;;;19.48;8.95;;;3.40;99.80;;;;;;6178263;23;20204;-89
2021/03/05 07:34:35;;;;;;;17.70;8.18;;;3.50;99.80;;;;;;6174309;23;20804;-89
2021/03/05 07:37:05;;;;;;;15.13;8.20;;;3.60;99.80;;;;;;6176237;23;20239;-89
2021/03/05 07:39:35;;;;;;;14.88;9.07;;;3.60;99.80;;;;;;6199385;23;20201;-90
2021/03/05 07:42:04;;;;;;;17.67;8.65;;;3.70;99.80;;;;;;6185717;23;20201;-90
2021/03/05 07:44:31;;;;;;;18.42;9.07;;;3.80;99.80;;;;;;6169091;23;20279;-90
2021/03/05 07:47:00;;;;;;;21.50;10.05;;;3.80;99.80;;;;;;6214701;22;20270;-89
2021/03/05 07:49:31;;;;;;;17.00;9.15;;;4.00;99.80;;;;;;6162207;23;20227;-90
2021/03/05 07:51:59;;;;;;;27.05;9.80;;;4.00;99.80;;;;;;6154424;23;20212;-89
2021/03/05 07:54:51;;;;;;;17.40;9.98;;;4.20;99.80;;;;;;6148951;23;20279;-90
2021/03/05 07:57:49;;;;;;;15.68;8.70;;;4.20;99.80;;;;;;6121143;23;20741;-89
2021/03/05 08:00:18;;;;;;;19.75;9.00;;;4.20;99.80;;;;;;6157877;23;20212;-90
2021/03/05 08:02:56;;;;;;;15.55;8.15;;;4.30;99.80;;;;;;6184887;23;20205;-90
2021/03/05 08:05:34;;;;;;;21.27;8.25;;;4.30;99.80;;;;;;6208161;23;20196;-90
2021/03/05 08:08:26;;;;;;;18.83;8.65;;;4.40;99.80;;;;;;6198829;23;20196;-90
2021/03/05 08:10:55;;;;;;;15.07;8.70;;;4.40;99.80;;;;;;6171152;23;20672;-89
2021/03/05 08:16:39;;;;;;;14.10;8.50;;;4.40;99.80;;;;;;6206170;22;20223;-90
2021/03/05 08:19:48;;;;;;;14.20;8.02;;;4.50;99.80;;;;;;6196028;23;20280;-89
2021/03/05 08:22:19;;;;;;;17.90;8.10;;;4.60;99.80;;;;;;6166046;23;20610;-89
2021/03/05 08:24:47;;;;;;;15.77;8.60;;;4.60;99.80;;;;;;6176811;23;20192;-90
2021/03/05 08:27:19;;;;;;;14.07;7.88;;;4.80;99.80;;;;;;6142341;23;20200;-91
2021/03/05 08:30:08;;;;;;;16.40;8.07;;;4.80;99.80;;;;;;6180361;23;20216;-89
2021/03/05 08:32:52;;;;;;;16.98;9.57;;;4.80;99.80;;;;;;6216375;22;20266;-89
2021/03/05 08:35:43;;;;;;;14.23;7.90;;;5.00;99.80;;;;;;6204535;23;20646;-90
2021/03/05 08:38:14;;;;;;;19.95;8.38;;;4.90;99.80;;;;;;6201736;23;20246;-89
2021/03/05 08:40:49;;;;;;;20.35;8.30;;;4.90;99.80;;;;;;6202006;23;20269;-89
2021/03/05 08:43:27;;;;;;;15.27;8.57;;;5.00;99.80;;;;;;6199343;23;20426;-90
2021/03/05 08:45:59;;;;;;;15.02;7.15;;;5.10;99.80;;;;;;6207765;23;20703;-89
2021/03/05 08:48:32;;;;;;;16.52;8.05;;;5.10;99.80;;;;;;6210104;23;20226;-89
2021/03/05 08:51:21;;;;;;;14.55;7.55;;;5.10;99.80;;;;;;6193312;23;20220;-90
2021/03/05 08:53:50;;;;;;;16.60;8.98;;;5.20;99.80;;;;;;6153599;23;20211;-90
2021/03/05 08:56:22;;;;;;;15.32;8.05;;;5.60;99.80;;;;;;6189331;23;20836;-90
2021/03/05 08:59:01;;;;;;;13.50;7.53;;;5.70;99.80;;;;;;6183695;23;20206;-90
2021/03/05 09:01:32;;;;;;;10.75;6.70;;;5.60;99.80;;;;;;6161043;23;20207;-89
2021/03/05 09:04:13;;;;;;;12.30;6.63;;;5.50;99.80;;;;;;6172049;23;20201;-89
2021/03/05 09:06:50;;;;;;;12.57;6.50;;;5.50;99.80;;;;;;6174387;23;20436;-89
2021/03/05 09:09:19;;;;;;;11.20;6.45;;;5.60;99.80;;;;;;6156483;23;20224;-85
2021/03/05 09:12:03;;;;;;;13.70;6.20;;;5.60;99.80;;;;;;6185059;23;20227;-86
2021/03/05 09:14:30;;;;;;;8.15;5.68;;;5.80;99.80;;;;;;6141890;23;20543;-89
2021/03/05 09:16:59;;;;;;;10.32;6.50;;;5.80;99.80;;;;;;6217131;22;20265;-89
2021/03/05 09:19:34;;;;;;;14.25;7.95;;;5.80;99.80;;;;;;6207205;23;20204;-88
2021/03/05 09:22:08;;;;;;;9.27;6.40;;;5.80;99.80;;;;;;6195065;23;20195;-88
2021/03/05 09:24:57;;;;;;;12.83;5.97;;;5.90;99.80;;;;;;6181714;23;20200;-89
2021/03/05 09:27:27;;;;;;;8.93;6.05;;;6.20;99.80;;;;;;6175797;23;20455;-88
2021/03/05 09:29:56;;;;;;;12.38;6.35;;;6.20;99.80;;;;;;6185187;22;20196;-88
2021/03/05 09:32:25;;;;;;;11.40;6.37;;;6.30;99.80;;;;;;6221347;23;20548;-88
2021/03/05 09:34:58;;;;;;;12.70;6.73;;;6.30;99.80;;;;;;6171542;23;20445;-88
2021/03/05 09:37:26;;;;;;;10.75;6.72;;;6.30;99.80;;;;;;6173186;23;20812;-88
2021/03/05 09:39:57;;;;;;;9.07;5.47;;;6.20;99.00;;;;;;6193487;23;20202;-89
2021/03/05 09:42:50;;;;;;;10.07;6.20;;;6.20;98.90;;;;;;6180603;23;20208;-88
2021/03/05 09:45:38;;;;;;;14.02;7.43;;;6.20;99.80;;;;;;6187562;23;20713;-89
2021/03/05 09:48:09;;;;;;;14.75;7.00;;;6.10;99.80;;;;;;6207390;23;20196;-89
2021/03/05 09:50:37;;;;;;;13.45;7.00;;;6.10;99.80;;;;;;6203348;23;20213;-88
2021/03/05 09:53:26;;;;;;;8.60;5.47;;;6.10;98.40;;;;;;6199018;23;20200;-89
2021/03/05 09:55:54;;;;;;;10.30;6.10;;;6.10;99.80;;;;;;6170086;23;20443;-88
2021/03/05 09:58:22;;;;;;;13.00;6.32;;;6.10;99.80;;;;;;6182646;22;20255;-88
2021/03/05 10:00:49;;;;;;;10.70;6.30;;;6.20;98.70;;;;;;6202634;23;20278;-88
2021/03/05 10:03:18;;;;;;;9.80;5.88;;;6.30;98.80;;;;;;6198587;23;20444;-88
2021/03/05 10:05:46;;;;;;;9.40;5.90;;;6.10;98.60;;;;;;6168559;23;20208;-88
2021/03/05 10:08:15;;;;;;;9.55;6.47;;;6.10;98.60;;;;;;6179015;22;20509;-89
2021/03/05 10:11:06;;;;;;;11.73;7.00;;;6.20;98.00;;;;;;6161284;22;20909;-88
2021/03/05 10:13:43;;;;;;;12.95;7.30;;;6.50;98.50;;;;;;6170955;23;20196;-88
2021/03/05 10:16:12;;;;;;;11.07;6.30;;;6.50;98.30;;;;;;6205288;22;20273;-88
2021/03/05 10:18:40;;;;;;;11.13;6.28;;;7.00;96.50;;;;;;6206417;23;20432;-88
2021/03/05 10:21:09;;;;;;;12.30;7.60;;;7.40;95.20;;;;;;6201684;23;20231;-88
2021/03/05 10:23:37;;;;;;;14.87;7.10;;;7.70;93.70;;;;;;6203026;23;20455;-88
2021/03/05 10:26:12;;;;;;;13.33;7.07;;;7.70;93.40;;;;;;6189367;23;20821;-89
2021/03/05 10:28:40;;;;;;;11.03;7.00;;;7.60;92.80;;;;;;6174702;23;20505;-88
2021/03/05 10:31:07;;;;;;;14.03;7.20;;;7.30;94.40;;;;;;6195650;23;20435;-88
2021/03/05 10:33:39;;;;;;;11.20;7.00;;;7.30;94.40;;;;;;6201290;23;20433;-88
2021/03/05 10:36:08;;;;;;;14.17;7.30;;;7.60;94.90;;;;;;6197812;23;20446;-88
2021/03/05 10:38:36;;;;;;;11.40;7.40;;;7.60;94.90;;;;;;6178285;23;21173;-88
2021/03/05 10:41:04;;;;;;;12.52;7.47;;;7.60;94.50;;;;;;6169171;23;20530;-87
2021/03/05 10:43:35;;;;;;;15.47;7.50;;;7.70;94.90;;;;;;6164295;23;20270;-88
2021/03/05 10:46:03;;;;;;;19.85;8.60;;;7.50;94.30;;;;;;6190263;23;20453;-87
2021/03/05 10:48:30;;;;;;;12.20;7.53;;;7.60;94.60;;;;;;6160907;23;20252;-86
2021/03/05 10:50:57;;;;;;;12.80;7.10;;;7.60;94.10;;;;;;6162294;23;20443;-87
2021/03/05 10:53:26;;;;;;;12.87;8.10;;;7.50;95.20;;;;;;6176121;22;20534;-87
2021/03/05 10:55:53;;;;;;;11.40;7.10;;;7.50;95.20;;;;;;6163843;23;20444;-88
2021/03/05 10:58:20;;;;;;;13.30;7.23;;;7.70;96.60;;;;;;6162691;23;20857;-88
2021/03/05 11:00:47;;;;;;;12.00;6.33;;;7.80;94.10;;;;;;6198581;22;20433;-87
2021/03/05 11:03:15;;;;;;;13.13;7.10;;;7.60;92.40;;;;;;6205726;23;20439;-87
2021/03/05 11:05:43;;;;;;;14.67;7.63;;;7.80;92.70;;;;;;6206966;23;20440;-87
2021/03/05 11:08:10;;;;;;;9.87;6.63;;;;;;;;;;6179045;22;20526;-87
2021/03/05 11:10:38;;;;;;;11.30;6.40;;;8.00;92.90;;;;;;6190059;23;20439;-88
2021/03/05 11:13:05;;;;;;;10.20;6.70;;;8.20;91.80;;;;;;6162295;23;20787;-87
2021/03/05 11:15:33;;;;;;;12.20;7.10;;;;;;;;;;6183186;23;20524;-87
2021/03/05 11:18:00;;;;;;;14.07;6.93;;;8.40;90.70;;;;;;6199436;23;20544;-87
2021/03/05 11:20:27;;;;;;;10.70;6.90;;;8.30;89.70;;;;;;6160919;22;20474;-87
2021/03/05 11:22:54;;;;;;;11.90;7.10;;;8.20;91.20;;;;;;6173541;22;20527;-87
2021/03/05 11:25:21;;;;;;;11.07;6.17;;;8.50;91.70;;;;;;6176145;23;20471;-87
2021/03/05 11:27:49;;;;;;;10.87;6.37;;;8.50;91.60;;;;;;6161032;23;20439;-87
2021/03/05 11:30:17;;;;;;;11.77;6.97;;;8.90;89.80;;;;;;6189435;23;20441;-87
2021/03/05 11:32:46;;;;;;;13.30;6.83;;;9.20;89.30;;;;;;6212977;23;20515;-87
2021/03/05 11:35:14;;;;;;;10.30;6.33;;;11.50;85.10;;;;;;6176552;23;20433;-87
2021/03/05 11:37:41;;;;;;;10.03;6.00;;;11.50;85.10;;;;;;6160420;23;20992;-88
2021/03/05 11:40:10;;;;;;;7.97;5.70;;;12.50;80.50;;;;;;6162867;23;21017;-87
2021/03/05 11:42:37;;;;;;;9.30;5.87;;;12.20;78.60;;;;;;6140359;23;20456;-88
2021/03/05 11:45:06;;;;;;;11.70;6.80;;;12.20;78.60;;;;;;6148137;23;20470;-87
2021/03/05 11:47:33;;;;;;;10.70;5.83;;;16.10;69.70;;;;;;6186376;23;20528;-88
2021/03/05 11:50:01;;;;;;;9.30;6.03;;;18.20;64.00;;;;;;6159609;23;20439;-86
2021/03/05 11:52:28;;;;;;;7.40;5.57;;;18.50;61.50;;;;;;6131451;23;20448;-88
2021/03/05 11:54:56;;;;;;;7.30;5.50;;;16.40;65.60;;;;;;6135693;23;20884;-88
2021/03/05 11:57:23;;;;;;;8.30;5.70;;;14.80;68.90;;;;;;6148618;23;20522;-87
2021/03/05 11:59:50;;;;;;;12.23;6.27;;;14.00;71.10;;;;;;6150256;23;20440;-87
2021/03/05 12:02:18;;;;;;;8.00;5.50;;;16.40;67.30;;;;;;6178551;23;20465;-88
2021/03/05 12:04:45;;;;;;;8.80;5.77;;;17.40;63.40;;;;;;6174607;23;20560;-88
2021/03/05 12:07:12;;;;;;;8.97;6.03;;;15.70;64.10;;;;;;6175911;23;20468;-88
2021/03/05 12:09:39;;;;;;;8.57;5.03;;;14.50;70.00;;;;;;6166922;23;20932;-89
2021/03/05 12:12:07;;;;;;;7.33;5.50;;;15.90;66.60;;;;;;6163382;23;20990;-89
2021/03/05 12:14:40;;;;;;;8.60;5.20;;;;;;;;;;6135922;23;20432;-88
2021/03/05 12:17:07;;;;;;;6.43;4.60;;;18.90;59.10;;;;;;6165189;23;20440;-88
2021/03/05 12:19:35;;;;;;;6.37;5.07;;;17.00;62.00;;;;;;6167018;23;20495;-88
2021/03/05 12:22:03;;;;;;;5.50;4.30;;;13.70;66.90;;;;;;6164420;23;20435;-87
2021/03/05 12:24:30;;;;;;;10.53;5.83;;;12.10;75.30;;;;;;6131675;23;20968;-87
2021/03/05 12:26:57;;;;;;;6.73;5.40;;;12.10;75.30;;;;;;6144054;23;20983;-87
2021/03/05 12:29:24;;;;;;;7.20;4.73;;;10.40;77.80;;;;;;6161419;23;20545;-88
2021/03/05 12:31:51;;;;;;;7.93;5.17;;;10.00;80.30;;;;;;6171646;23;20443;-88
2021/03/05 12:34:19;;;;;;;6.80;5.10;;;10.00;80.40;;;;;;6130778;23;20448;-88
2021/03/05 12:36:47;;;;;;;7.33;4.80;;;10.10;80.40;;;;;;6145898;23;20466;-88
2021/03/05 12:39:14;;;;;;;6.43;4.77;;;10.20;82.50;;;;;;6133903;23;20477;-81
2021/03/05 12:41:41;;;;;;;8.83;5.67;;;10.30;81.00;;;;;;6131740;23;20527;-88
2021/03/05 12:44:08;;;;;;;8.53;4.23;;;10.80;80.60;;;;;;6147559;23;20554;-84
2021/03/05 12:46:35;;;;;;;7.53;4.57;;;11.80;78.80;;;;;;6194329;23;20530;-89
2021/03/05 12:49:03;;;;;;;6.60;4.50;;;11.70;73.80;;;;;;6173032;23;20927;-89
2021/03/05 12:51:30;;;;;;;6.73;4.60;;;10.90;75.80;;;;;;6164160;23;21050;-88
2021/03/05 12:53:59;;;;;;;7.20;4.77;;;10.90;75.80;;;;;;6145784;23;20536;-88
2021/03/05 12:56:26;;;;;;;6.13;4.80;;;10.80;75.90;;;;;;6130985;23;20536;-89
2021/03/05 12:58:53;;;;;;;7.17;4.40;;;10.90;75.20;;;;;;6144643;23;20512;-89
2021/03/05 13:01:21;;;;;;;4.70;3.80;;;11.60;75.10;;;;;;6168634;23;20519;-89
2021/03/05 13:03:48;;;;;;;5.37;4.00;;;12.40;71.60;;;;;;6160742;22;20473;-90
2021/03/05 13:06:16;;;;;;;5.47;4.20;;;12.20;69.30;;;;;;6187871;22;20808;-90
2021/03/05 13:08:49;;;;;;;4.07;3.20;;;12.20;69.40;;;;;;6176966;23;20434;-90
2021/03/05 13:11:17;;;;;;;5.20;3.70;;;11.60;68.60;;;;;;6173950;22;20837;-90